sensor_id;sensor_type;location;lat;lon;timestamp;pressure;altitude;pressure_sealevel;temperature
28803;BMP280;15949;55.656;37.422;2023-04-06T00:00:44;100111.72;;;4.24
28803;BMP280;15949;55.656;37.422;2023-04-06T00:05:50;100107.66;;;4.23
28803;BMP280;15949;55.656;37.422;2023-04-06T00:10:56;100106.06;;;4.27
28803;BMP280;15949;55.656;37.422;2023-04-06T00:16:02;100100.16;;;4.21
28803;BMP280;15949;55.656;37.422;2023-04-06T00:21:08;100111.75;;;4.19
28803;BMP280;15949;55.656;37.422;2023-04-06T00:26:13;100122.38;;;4.17
28803;BMP280;15949;55.656;37.422;2023-04-06T00:31:19;100118.50;;;4.15
28803;BMP280;15949;55.656;37.422;2023-04-06T00:36:24;100118.00;;;4.13
28803;BMP280;15949;55.656;37.422;2023-04-06T00:41:30;100116.75;;;4.05
28803;BMP280;15949;55.656;37.422;2023-04-06T00:46:36;100110.31;;;4.02
28803;BMP280;15949;55.656;37.422;2023-04-06T00:51:42;100110.31;;;3.97
28803;BMP280;15949;55.656;37.422;2023-04-06T00:56:47;100115.81;;;3.91
28803;BMP280;15949;55.656;37.422;2023-04-06T01:01:53;100106.75;;;3.88
28803;BMP280;15949;55.656;37.422;2023-04-06T01:06:59;100105.22;;;3.87
28803;BMP280;15949;55.656;37.422;2023-04-06T01:12:04;100100.06;;;3.87
28803;BMP280;15949;55.656;37.422;2023-04-06T01:17:10;100101.38;;;3.85
28803;BMP280;15949;55.656;37.422;2023-04-06T01:22:16;100098.56;;;3.76
28803;BMP280;15949;55.656;37.422;2023-04-06T01:27:22;100098.34;;;3.73
28803;BMP280;15949;55.656;37.422;2023-04-06T01:32:27;100094.75;;;3.69
28803;BMP280;15949;55.656;37.422;2023-04-06T01:37:33;100088.06;;;3.63
28803;BMP280;15949;55.656;37.422;2023-04-06T01:42:39;100100.22;;;3.57
28803;BMP280;15949;55.656;37.422;2023-04-06T01:47:44;100095.56;;;3.54
28803;BMP280;15949;55.656;37.422;2023-04-06T01:52:50;100101.25;;;3.46
28803;BMP280;15949;55.656;37.422;2023-04-06T01:57:56;100097.91;;;3.45
28803;BMP280;15949;55.656;37.422;2023-04-06T02:03:02;100104.13;;;3.39
28803;BMP280;15949;55.656;37.422;2023-04-06T02:08:07;100110.03;;;3.40
28803;BMP280;15949;55.656;37.422;2023-04-06T02:13:13;100110.03;;;3.40
28803;BMP280;15949;55.656;37.422;2023-04-06T02:18:18;100118.28;;;3.37
28803;BMP280;15949;55.656;37.422;2023-04-06T02:23:24;100104.13;;;3.34
28803;BMP280;15949;55.656;37.422;2023-04-06T02:28:30;100111.59;;;3.31
28803;BMP280;15949;55.656;37.422;2023-04-06T02:33:36;100113.69;;;3.24
28803;BMP280;15949;55.656;37.422;2023-04-06T02:38:41;100120.13;;;3.21
28803;BMP280;15949;55.656;37.422;2023-04-06T02:43:47;100122.94;;;3.20
28803;BMP280;15949;55.656;37.422;2023-04-06T02:48:53;100130.16;;;3.18
28803;BMP280;15949;55.656;37.422;2023-04-06T02:53:59;100130.72;;;3.10
28803;BMP280;15949;55.656;37.422;2023-04-06T02:59:04;100150.28;;;3.06
28803;BMP280;15949;55.656;37.422;2023-04-06T03:04:10;100144.06;;;3.01
28803;BMP280;15949;55.656;37.422;2023-04-06T03:09:16;100148.97;;;2.98
28803;BMP280;15949;55.656;37.422;2023-04-06T03:14:21;100160.56;;;2.95
28803;BMP280;15949;55.656;37.422;2023-04-06T03:19:27;100155.94;;;2.92
28803;BMP280;15949;55.656;37.422;2023-04-06T03:24:33;100163.41;;;2.94
28803;BMP280;15949;55.656;37.422;2023-04-06T03:29:38;100163.66;;;2.97
28803;BMP280;15949;55.656;37.422;2023-04-06T03:34:44;100171.38;;;2.97
28803;BMP280;15949;55.656;37.422;2023-04-06T03:39:50;100171.66;;;2.96
28803;BMP280;15949;55.656;37.422;2023-04-06T03:44:55;100171.91;;;2.99
28803;BMP280;15949;55.656;37.422;2023-04-06T03:50:01;100181.66;;;3.02
28803;BMP280;15949;55.656;37.422;2023-04-06T03:55:08;100177.81;;;3.05
28803;BMP280;15949;55.656;37.422;2023-04-06T04:00:14;100178.31;;;3.02
28803;BMP280;15949;55.656;37.422;2023-04-06T04:05:20;100189.91;;;3.04
28803;BMP280;15949;55.656;37.422;2023-04-06T04:10:30;100187.38;;;3.10
28803;BMP280;15949;55.656;37.422;2023-04-06T04:15:35;100183.72;;;3.11
28803;BMP280;15949;55.656;37.422;2023-04-06T04:20:41;100193.56;;;3.14
28803;BMP280;15949;55.656;37.422;2023-04-06T04:25:48;100196.59;;;3.21
28803;BMP280;15949;55.656;37.422;2023-04-06T04:30:54;100194.81;;;3.26
28803;BMP280;15949;55.656;37.422;2023-04-06T04:35:59;100203.31;;;3.32
28803;BMP280;15949;55.656;37.422;2023-04-06T04:41:05;100202.28;;;3.43
28803;BMP280;15949;55.656;37.422;2023-04-06T04:46:10;100203.81;;;3.54
28803;BMP280;15949;55.656;37.422;2023-04-06T04:51:16;100194.00;;;3.61
28803;BMP280;15949;55.656;37.422;2023-04-06T04:56:22;100200.69;;;3.72
28803;BMP280;15949;55.656;37.422;2023-04-06T05:01:27;100197.56;;;3.80
28803;BMP280;15949;55.656;37.422;2023-04-06T05:06:33;100202.16;;;3.93
28803;BMP280;15949;55.656;37.422;2023-04-06T05:11:38;100196.44;;;4.06
28803;BMP280;15949;55.656;37.422;2023-04-06T05:16:44;100200.00;;;4.16
28803;BMP280;15949;55.656;37.422;2023-04-06T05:21:50;100204.13;;;4.22
28803;BMP280;15949;55.656;37.422;2023-04-06T05:26:55;100200.97;;;4.35
28803;BMP280;15949;55.656;37.422;2023-04-06T05:32:01;100199.09;;;4.45
28803;BMP280;15949;55.656;37.422;2023-04-06T05:37:07;100206.97;;;4.64
28803;BMP280;15949;55.656;37.422;2023-04-06T05:42:12;100205.63;;;4.77
28803;BMP280;15949;55.656;37.422;2023-04-06T05:47:18;100212.69;;;4.95
28803;BMP280;15949;55.656;37.422;2023-04-06T05:52:24;100205.53;;;5.21
28803;BMP280;15949;55.656;37.422;2023-04-06T05:57:30;100210.50;;;5.41
28803;BMP280;15949;55.656;37.422;2023-04-06T06:02:35;100211.94;;;5.57
28803;BMP280;15949;55.656;37.422;2023-04-06T06:07:41;100215.31;;;5.76
28803;BMP280;15949;55.656;37.422;2023-04-06T06:12:47;100213.50;;;5.77
28803;BMP280;15949;55.656;37.422;2023-04-06T06:17:53;100217.69;;;5.96
28803;BMP280;15949;55.656;37.422;2023-04-06T06:22:58;100218.69;;;6.19
28803;BMP280;15949;55.656;37.422;2023-04-06T06:28:04;100203.03;;;6.29
28803;BMP280;15949;55.656;37.422;2023-04-06T06:33:10;100200.63;;;6.51
28803;BMP280;15949;55.656;37.422;2023-04-06T06:38:16;100201.31;;;6.57
28803;BMP280;15949;55.656;37.422;2023-04-06T06:43:22;100209.56;;;6.78
28803;BMP280;15949;55.656;37.422;2023-04-06T06:48:28;100190.09;;;6.94
28803;BMP280;15949;55.656;37.422;2023-04-06T06:53:34;100195.16;;;7.17
28803;BMP280;15949;55.656;37.422;2023-04-06T06:58:40;100198.44;;;7.37
28803;BMP280;15949;55.656;37.422;2023-04-06T07:03:46;100196.41;;;7.47
28803;BMP280;15949;55.656;37.422;2023-04-06T07:08:51;100196.13;;;7.76
28803;BMP280;15949;55.656;37.422;2023-04-06T07:13:57;100204.75;;;7.85
28803;BMP280;15949;55.656;37.422;2023-04-06T07:19:03;100198.56;;;8.08
28803;BMP280;15949;55.656;37.422;2023-04-06T07:24:08;100195.38;;;8.33
28803;BMP280;15949;55.656;37.422;2023-04-06T07:29:14;100189.75;;;8.54
28803;BMP280;15949;55.656;37.422;2023-04-06T07:34:20;100192.84;;;8.64
28803;BMP280;15949;55.656;37.422;2023-04-06T07:39:26;100195.94;;;8.97
28803;BMP280;15949;55.656;37.422;2023-04-06T07:44:32;100187.91;;;9.16
28803;BMP280;15949;55.656;37.422;2023-04-06T07:49:38;100190.44;;;9.46
28803;BMP280;15949;55.656;37.422;2023-04-06T07:54:43;100198.50;;;9.84
28803;BMP280;15949;55.656;37.422;2023-04-06T07:59:49;100189.41;;;10.07
28803;BMP280;15949;55.656;37.422;2023-04-06T08:04:55;100193.69;;;10.12
28803;BMP280;15949;55.656;37.422;2023-04-06T08:10:01;100188.97;;;10.31
28803;BMP280;15949;55.656;37.422;2023-04-06T08:15:07;100188.56;;;10.67
28803;BMP280;15949;55.656;37.422;2023-04-06T08:20:13;100193.00;;;10.66
28803;BMP280;15949;55.656;37.422;2023-04-06T08:25:18;100195.22;;;10.94
28803;BMP280;15949;55.656;37.422;2023-04-06T08:30:24;100191.31;;;11.08
28803;BMP280;15949;55.656;37.422;2023-04-06T08:35:29;100184.81;;;11.23
28803;BMP280;15949;55.656;37.422;2023-04-06T08:40:39;100185.94;;;11.34
28803;BMP280;15949;55.656;37.422;2023-04-06T08:45:45;100177.16;;;11.68
28803;BMP280;15949;55.656;37.422;2023-04-06T08:51:00;100178.59;;;11.98
28803;BMP280;15949;55.656;37.422;2023-04-06T08:56:10;100175.41;;;12.04
28803;BMP280;15949;55.656;37.422;2023-04-06T09:01:18;100176.25;;;12.17
28803;BMP280;15949;55.656;37.422;2023-04-06T09:06:26;100174.03;;;12.52
28803;BMP280;15949;55.656;37.422;2023-04-06T09:11:46;100165.19;;;12.44
28803;BMP280;15949;55.656;37.422;2023-04-06T09:16:52;100172.84;;;12.61
28803;BMP280;15949;55.656;37.422;2023-04-06T09:22:03;100172.75;;;12.58
28803;BMP280;15949;55.656;37.422;2023-04-06T09:27:08;100172.72;;;12.94
28803;BMP280;15949;55.656;37.422;2023-04-06T09:32:14;100173.78;;;13.17
28803;BMP280;15949;55.656;37.422;2023-04-06T09:37:22;100169.13;;;13.51
28803;BMP280;15949;55.656;37.422;2023-04-06T09:42:27;100163.69;;;13.43
28803;BMP280;15949;55.656;37.422;2023-04-06T09:47:35;100170.44;;;13.57
28803;BMP280;15949;55.656;37.422;2023-04-06T09:52:47;100161.59;;;13.77
28803;BMP280;15949;55.656;37.422;2023-04-06T10:08:15;100160.03;;;14.66
28803;BMP280;15949;55.656;37.422;2023-04-06T10:13:23;100154.63;;;14.94
28803;BMP280;15949;55.656;37.422;2023-04-06T10:18:29;100151.69;;;15.14
28803;BMP280;15949;55.656;37.422;2023-04-06T10:24:02;100151.63;;;15.11
28803;BMP280;15949;55.656;37.422;2023-04-06T10:29:12;100158.69;;;15.26
28803;BMP280;15949;55.656;37.422;2023-04-06T10:34:17;100153.50;;;15.29
28803;BMP280;15949;55.656;37.422;2023-04-06T10:39:26;100150.94;;;15.14
28803;BMP280;15949;55.656;37.422;2023-04-06T10:44:42;100151.31;;;15.31
28803;BMP280;15949;55.656;37.422;2023-04-06T10:49:48;100157.53;;;15.65
28803;BMP280;15949;55.656;37.422;2023-04-06T10:54:53;100156.81;;;15.45
28803;BMP280;15949;55.656;37.422;2023-04-06T11:00:00;100143.28;;;15.85
28803;BMP280;15949;55.656;37.422;2023-04-06T11:05:06;100150.44;;;16.11
28803;BMP280;15949;55.656;37.422;2023-04-06T11:10:11;100142.16;;;16.09
28803;BMP280;15949;55.656;37.422;2023-04-06T11:15:17;100144.00;;;15.86
28803;BMP280;15949;55.656;37.422;2023-04-06T11:20:23;100140.28;;;16.09
28803;BMP280;15949;55.656;37.422;2023-04-06T11:25:28;100149.06;;;15.72
28803;BMP280;15949;55.656;37.422;2023-04-06T11:30:36;100145.81;;;16.04
28803;BMP280;15949;55.656;37.422;2023-04-06T11:35:42;100137.38;;;15.92
28803;BMP280;15949;55.656;37.422;2023-04-06T11:40:53;100133.72;;;16.00
28803;BMP280;15949;55.656;37.422;2023-04-06T11:46:02;100127.94;;;15.68
28803;BMP280;15949;55.656;37.422;2023-04-06T11:51:08;100133.22;;;15.91
28803;BMP280;15949;55.656;37.422;2023-04-06T11:56:29;100126.72;;;16.07
28803;BMP280;15949;55.656;37.422;2023-04-06T12:01:45;100127.25;;;16.16
28803;BMP280;15949;55.656;37.422;2023-04-06T12:06:51;100120.16;;;16.47
28803;BMP280;15949;55.656;37.422;2023-04-06T12:11:56;100125.94;;;16.30
28803;BMP280;15949;55.656;37.422;2023-04-06T12:17:02;100130.16;;;16.38
28803;BMP280;15949;55.656;37.422;2023-04-06T12:22:08;100118.28;;;16.21
28803;BMP280;15949;55.656;37.422;2023-04-06T12:27:13;100120.59;;;16.26
28803;BMP280;15949;55.656;37.422;2023-04-06T12:32:19;100113.22;;;16.35
28803;BMP280;15949;55.656;37.422;2023-04-06T12:37:24;100122.78;;;16.20
28803;BMP280;15949;55.656;37.422;2023-04-06T12:42:31;100117.00;;;16.11
28803;BMP280;15949;55.656;37.422;2023-04-06T12:47:37;100119.75;;;16.18
28803;BMP280;15949;55.656;37.422;2023-04-06T12:52:43;100113.53;;;16.30
28803;BMP280;15949;55.656;37.422;2023-04-06T12:57:48;100119.16;;;16.29
28803;BMP280;15949;55.656;37.422;2023-04-06T13:02:54;100111.75;;;16.38
28803;BMP280;15949;55.656;37.422;2023-04-06T13:07:59;100114.88;;;16.20
28803;BMP280;15949;55.656;37.422;2023-04-06T13:13:05;100107.28;;;16.15
28803;BMP280;15949;55.656;37.422;2023-04-06T13:18:11;100105.31;;;16.09
28803;BMP280;15949;55.656;37.422;2023-04-06T13:23:16;100106.25;;;16.20
28803;BMP280;15949;55.656;37.422;2023-04-06T13:28:22;100106.81;;;16.33
28803;BMP280;15949;55.656;37.422;2023-04-06T13:33:29;100106.50;;;16.11
28803;BMP280;15949;55.656;37.422;2023-04-06T13:38:34;100100.72;;;16.02
28803;BMP280;15949;55.656;37.422;2023-04-06T13:43:40;100104.44;;;15.79
28803;BMP280;15949;55.656;37.422;2023-04-06T13:48:46;100098.25;;;15.68
28803;BMP280;15949;55.656;37.422;2023-04-06T13:53:52;100093.78;;;15.68
28803;BMP280;15949;55.656;37.422;2023-04-06T13:58:58;100099.91;;;15.53
28803;BMP280;15949;55.656;37.422;2023-04-06T14:04:04;100100.97;;;15.29
28803;BMP280;15949;55.656;37.422;2023-04-06T14:09:10;100104.19;;;15.23
28803;BMP280;15949;55.656;37.422;2023-04-06T14:14:16;100097.88;;;15.05
28803;BMP280;15949;55.656;37.422;2023-04-06T14:19:22;100089.56;;;14.83
28803;BMP280;15949;55.656;37.422;2023-04-06T14:24:28;100097.41;;;14.64
28803;BMP280;15949;55.656;37.422;2023-04-06T14:29:33;100099.63;;;14.62
28803;BMP280;15949;55.656;37.422;2023-04-06T14:34:39;100105.81;;;14.54
28803;BMP280;15949;55.656;37.422;2023-04-06T14:39:44;100099.06;;;14.22
28803;BMP280;15949;55.656;37.422;2023-04-06T14:44:50;100097.13;;;13.88
28803;BMP280;15949;55.656;37.422;2023-04-06T14:49:56;100098.19;;;13.56
28803;BMP280;15949;55.656;37.422;2023-04-06T14:55:03;100100.97;;;13.35
28803;BMP280;15949;55.656;37.422;2023-04-06T15:00:10;100096.72;;;13.03
28803;BMP280;15949;55.656;37.422;2023-04-06T15:05:16;100105.91;;;12.85
28803;BMP280;15949;55.656;37.422;2023-04-06T15:10:21;100100.16;;;12.55
28803;BMP280;15949;55.656;37.422;2023-04-06T15:15:27;100105.25;;;12.39
28803;BMP280;15949;55.656;37.422;2023-04-06T15:20:33;100108.53;;;12.36
28803;BMP280;15949;55.656;37.422;2023-04-06T15:25:39;100111.47;;;12.59
28803;BMP280;15949;55.656;37.422;2023-04-06T15:30:46;100121.94;;;12.35
28803;BMP280;15949;55.656;37.422;2023-04-06T15:35:52;100124.91;;;12.00
28803;BMP280;15949;55.656;37.422;2023-04-06T15:40:57;100132.66;;;11.76
28803;BMP280;15949;55.656;37.422;2023-04-06T15:46:03;100128.41;;;11.51
28803;BMP280;15949;55.656;37.422;2023-04-06T15:51:08;100132.81;;;11.38
28803;BMP280;15949;55.656;37.422;2023-04-06T15:56:14;100145.53;;;11.19
28803;BMP280;15949;55.656;37.422;2023-04-06T16:01:20;100150.59;;;10.95
28803;BMP280;15949;55.656;37.422;2023-04-06T16:06:25;100153.59;;;10.76
28803;BMP280;15949;55.656;37.422;2023-04-06T16:11:31;100162.84;;;10.57
28803;BMP280;15949;55.656;37.422;2023-04-06T16:16:37;100166.06;;;10.45
28803;BMP280;15949;55.656;37.422;2023-04-06T16:21:42;100169.63;;;10.32
28803;BMP280;15949;55.656;37.422;2023-04-06T16:26:48;100173.63;;;10.21
28803;BMP280;15949;55.656;37.422;2023-04-06T16:31:55;100172.13;;;10.03
28803;BMP280;15949;55.656;37.422;2023-04-06T16:37:00;100185.91;;;9.86
28803;BMP280;15949;55.656;37.422;2023-04-06T16:42:06;100185.59;;;9.79
28803;BMP280;15949;55.656;37.422;2023-04-06T16:47:11;100199.81;;;9.73
28803;BMP280;15949;55.656;37.422;2023-04-06T16:52:17;100201.38;;;9.57
28803;BMP280;15949;55.656;37.422;2023-04-06T16:57:23;100199.66;;;9.52
28803;BMP280;15949;55.656;37.422;2023-04-06T17:02:33;100209.72;;;9.45
28803;BMP280;15949;55.656;37.422;2023-04-06T17:07:40;100221.94;;;9.36
28803;BMP280;15949;55.656;37.422;2023-04-06T17:12:48;100223.28;;;9.25
28803;BMP280;15949;55.656;37.422;2023-04-06T17:17:54;100227.09;;;9.19
28803;BMP280;15949;55.656;37.422;2023-04-06T17:22:59;100224.88;;;9.04
28803;BMP280;15949;55.656;37.422;2023-04-06T17:28:05;100227.72;;;8.94
28803;BMP280;15949;55.656;37.422;2023-04-06T17:33:10;100252.50;;;8.91
28803;BMP280;15949;55.656;37.422;2023-04-06T17:38:16;100247.84;;;8.80
28803;BMP280;15949;55.656;37.422;2023-04-06T17:43:22;100245.09;;;8.76
28803;BMP280;15949;55.656;37.422;2023-04-06T17:48:28;100245.59;;;8.65
28803;BMP280;15949;55.656;37.422;2023-04-06T17:53:34;100255.00;;;8.52
28803;BMP280;15949;55.656;37.422;2023-04-06T17:58:40;100263.69;;;8.34
28803;BMP280;15949;55.656;37.422;2023-04-06T18:03:46;100267.94;;;8.30
28803;BMP280;15949;55.656;37.422;2023-04-06T18:08:52;100268.34;;;8.23
28803;BMP280;15949;55.656;37.422;2023-04-06T18:13:57;100265.09;;;8.18
28803;BMP280;15949;55.656;37.422;2023-04-06T18:19:03;100270.94;;;8.10
28803;BMP280;15949;55.656;37.422;2023-04-06T18:24:09;100269.16;;;7.97
28803;BMP280;15949;55.656;37.422;2023-04-06T18:29:14;100263.97;;;7.83
28803;BMP280;15949;55.656;37.422;2023-04-06T18:34:22;100268.97;;;7.79
28803;BMP280;15949;55.656;37.422;2023-04-06T18:39:27;100268.78;;;7.76
28803;BMP280;15949;55.656;37.422;2023-04-06T18:44:33;100281.47;;;7.64
28803;BMP280;15949;55.656;37.422;2023-04-06T18:49:39;100280.88;;;7.53
28803;BMP280;15949;55.656;37.422;2023-04-06T18:54:44;100284.13;;;7.45
28803;BMP280;15949;55.656;37.422;2023-04-06T18:59:50;100286.97;;;7.30
28803;BMP280;15949;55.656;37.422;2023-04-06T19:04:55;100286.28;;;7.24
28803;BMP280;15949;55.656;37.422;2023-04-06T19:10:01;100283.97;;;7.09
28803;BMP280;15949;55.656;37.422;2023-04-06T19:15:07;100288.06;;;6.97
28803;BMP280;15949;55.656;37.422;2023-04-06T19:20:13;100287.41;;;6.86
28803;BMP280;15949;55.656;37.422;2023-04-06T19:25:19;100287.22;;;6.83
28803;BMP280;15949;55.656;37.422;2023-04-06T19:30:24;100282.44;;;6.71
28803;BMP280;15949;55.656;37.422;2023-04-06T19:35:30;100287.63;;;6.52
28803;BMP280;15949;55.656;37.422;2023-04-06T19:40:35;100293.59;;;6.53
28803;BMP280;15949;55.656;37.422;2023-04-06T19:45:41;100280.50;;;6.44
28803;BMP280;15949;55.656;37.422;2023-04-06T19:50:47;100283.13;;;6.39
28803;BMP280;15949;55.656;37.422;2023-04-06T19:55:52;100286.56;;;6.35
28803;BMP280;15949;55.656;37.422;2023-04-06T20:00:58;100288.78;;;6.23
28803;BMP280;15949;55.656;37.422;2023-04-06T20:06:03;100290.88;;;6.20
28803;BMP280;15949;55.656;37.422;2023-04-06T20:11:09;100291.56;;;6.07
28803;BMP280;15949;55.656;37.422;2023-04-06T20:16:15;100291.56;;;6.07
28803;BMP280;15949;55.656;37.422;2023-04-06T20:21:21;100294.53;;;5.96
28803;BMP280;15949;55.656;37.422;2023-04-06T20:26:27;100292.25;;;5.89
28803;BMP280;15949;55.656;37.422;2023-04-06T20:31:32;100295.72;;;5.80
28803;BMP280;15949;55.656;37.422;2023-04-06T20:36:38;100284.16;;;5.72
28803;BMP280;15949;55.656;37.422;2023-04-06T20:41:44;100289.88;;;5.69
28803;BMP280;15949;55.656;37.422;2023-04-06T20:46:49;100298.78;;;5.58
28803;BMP280;15949;55.656;37.422;2023-04-06T20:51:55;100296.81;;;5.45
28803;BMP280;15949;55.656;37.422;2023-04-06T20:57:01;100302.31;;;5.38
28803;BMP280;15949;55.656;37.422;2023-04-06T21:02:07;100307.47;;;5.38
28803;BMP280;15949;55.656;37.422;2023-04-06T21:07:12;100316.06;;;5.29
28803;BMP280;15949;55.656;37.422;2023-04-06T21:12:18;100311.75;;;5.19
28803;BMP280;15949;55.656;37.422;2023-04-06T21:17:23;100312.81;;;5.13
28803;BMP280;15949;55.656;37.422;2023-04-06T21:22:29;100322.19;;;5.04
28803;BMP280;15949;55.656;37.422;2023-04-06T21:27:35;100326.13;;;4.91
28803;BMP280;15949;55.656;37.422;2023-04-06T21:32:40;100334.97;;;4.85
28803;BMP280;15949;55.656;37.422;2023-04-06T21:37:46;100333.97;;;4.81
28803;BMP280;15949;55.656;37.422;2023-04-06T21:42:51;100333.00;;;4.67
28803;BMP280;15949;55.656;37.422;2023-04-06T21:47:58;100335.28;;;4.69
28803;BMP280;15949;55.656;37.422;2023-04-06T21:53:03;100330.91;;;4.59
28803;BMP280;15949;55.656;37.422;2023-04-06T21:58:10;100330.47;;;4.52
28803;BMP280;15949;55.656;37.422;2023-04-06T22:03:15;100333.03;;;4.52
28803;BMP280;15949;55.656;37.422;2023-04-06T22:08:21;100328.94;;;4.46
28803;BMP280;15949;55.656;37.422;2023-04-06T22:13:27;100321.97;;;4.41
28803;BMP280;15949;55.656;37.422;2023-04-06T22:18:33;100330.00;;;4.30
28803;BMP280;15949;55.656;37.422;2023-04-06T22:23:39;100332.84;;;4.23
28803;BMP280;15949;55.656;37.422;2023-04-06T22:28:46;100323.88;;;4.05
28803;BMP280;15949;55.656;37.422;2023-04-06T22:33:52;100330.59;;;3.96
28803;BMP280;15949;55.656;37.422;2023-04-06T22:38:57;100328.53;;;3.88
28803;BMP280;15949;55.656;37.422;2023-04-06T22:44:03;100326.97;;;3.87
28803;BMP280;15949;55.656;37.422;2023-04-06T22:49:08;100327.00;;;3.77
28803;BMP280;15949;55.656;37.422;2023-04-06T22:54:14;100332.69;;;3.64
28803;BMP280;15949;55.656;37.422;2023-04-06T22:59:19;100332.41;;;3.55
28803;BMP280;15949;55.656;37.422;2023-04-06T23:04:25;100331.66;;;3.50
28803;BMP280;15949;55.656;37.422;2023-04-06T23:09:31;100320.53;;;3.44
28803;BMP280;15949;55.656;37.422;2023-04-06T23:14:36;100321.06;;;3.31
28803;BMP280;15949;55.656;37.422;2023-04-06T23:19:42;100324.66;;;3.35
28803;BMP280;15949;55.656;37.422;2023-04-06T23:24:48;100321.84;;;3.27
28803;BMP280;15949;55.656;37.422;2023-04-06T23:29:54;100322.06;;;3.15
28803;BMP280;15949;55.656;37.422;2023-04-06T23:34:59;100315.84;;;3.16
28803;BMP280;15949;55.656;37.422;2023-04-06T23:40:06;100317.97;;;3.14
28803;BMP280;15949;55.656;37.422;2023-04-06T23:45:11;100325.16;;;3.12
28803;BMP280;15949;55.656;37.422;2023-04-06T23:50:17;100319.47;;;3.15
28803;BMP280;15949;55.656;37.422;2023-04-06T23:55:23;100306.31;;;3.07
